sensor_id;sensor_type;location;lat;lon;timestamp;P1;P2;P0
80555;PMS5003;69889;55.040;73.076;2023-11-21T00:00:58;77.50;64.25;35.50
80555;PMS5003;69889;55.040;73.076;2023-11-21T00:03:27;75.50;60.00;33.00
80555;PMS5003;69889;55.040;73.076;2023-11-21T00:05:54;74.50;58.50;34.50
80555;PMS5003;69889;55.040;73.076;2023-11-21T00:08:20;76.00;58.75;33.75
80555;PMS5003;69889;55.040;73.076;2023-11-21T00:10:47;73.00;56.25;33.25
80555;PMS5003;69889;55.040;73.076;2023-11-21T00:13:14;70.25;53.25;32.75
80555;PMS5003;69889;55.040;73.076;2023-11-21T00:15:40;76.50;61.00;34.50
80555;PMS5003;69889;55.040;73.076;2023-11-21T00:18:07;78.75;63.50;34.75
80555;PMS5003;69889;55.040;73.076;2023-11-21T00:20:33;77.25;62.00;35.00
80555;PMS5003;69889;55.040;73.076;2023-11-21T00:22:59;75.00;58.75;33.75
80555;PMS5003;69889;55.040;73.076;2023-11-21T00:25:26;67.50;52.50;31.25
80555;PMS5003;69889;55.040;73.076;2023-11-21T00:27:52;69.50;52.00;30.50
80555;PMS5003;69889;55.040;73.076;2023-11-21T00:30:19;68.25;51.75;32.00
80555;PMS5003;69889;55.040;73.076;2023-11-21T00:32:48;64.00;49.50;30.00
80555;PMS5003;69889;55.040;73.076;2023-11-21T00:35:14;61.50;46.25;28.00
80555;PMS5003;69889;55.040;73.076;2023-11-21T00:37:41;62.25;48.25;28.75
80555;PMS5003;69889;55.040;73.076;2023-11-21T00:40:08;63.75;49.25;29.75
80555;PMS5003;69889;55.040;73.076;2023-11-21T00:42:35;63.00;47.50;28.75
80555;PMS5003;69889;55.040;73.076;2023-11-21T00:45:01;58.00;45.00;28.25
80555;PMS5003;69889;55.040;73.076;2023-11-21T00:47:30;58.75;46.50;28.75
80555;PMS5003;69889;55.040;73.076;2023-11-21T00:49:57;57.75;45.25;28.00
80555;PMS5003;69889;55.040;73.076;2023-11-21T00:52:23;62.50;48.00;29.00
80555;PMS5003;69889;55.040;73.076;2023-11-21T00:54:50;54.50;42.00;25.50
80555;PMS5003;69889;55.040;73.076;2023-11-21T00:57:16;60.50;45.75;27.50
80555;PMS5003;69889;55.040;73.076;2023-11-21T00:59:42;59.25;46.25;27.25
80555;PMS5003;69889;55.040;73.076;2023-11-21T01:02:09;55.75;46.00;27.50
80555;PMS5003;69889;55.040;73.076;2023-11-21T01:04:36;59.25;45.00;28.00
80555;PMS5003;69889;55.040;73.076;2023-11-21T01:07:03;59.25;46.50;28.50
80555;PMS5003;69889;55.040;73.076;2023-11-21T01:09:31;63.25;48.25;29.00
80555;PMS5003;69889;55.040;73.076;2023-11-21T01:11:57;66.00;49.50;30.25
80555;PMS5003;69889;55.040;73.076;2023-11-21T01:14:25;67.25;51.25;30.50
80555;PMS5003;69889;55.040;73.076;2023-11-21T01:16:53;64.00;49.50;29.75
80555;PMS5003;69889;55.040;73.076;2023-11-21T01:19:19;64.50;49.25;28.25
80555;PMS5003;69889;55.040;73.076;2023-11-21T01:21:46;68.50;51.50;30.75
80555;PMS5003;69889;55.040;73.076;2023-11-21T01:24:13;71.25;53.50;32.25
80555;PMS5003;69889;55.040;73.076;2023-11-21T01:26:39;69.75;51.75;30.00
80555;PMS5003;69889;55.040;73.076;2023-11-21T01:29:05;63.50;49.25;28.50
80555;PMS5003;69889;55.040;73.076;2023-11-21T01:31:32;67.00;51.25;30.50
80555;PMS5003;69889;55.040;73.076;2023-11-21T01:33:58;70.25;54.25;33.50
80555;PMS5003;69889;55.040;73.076;2023-11-21T01:36:31;65.50;51.50;32.00
80555;PMS5003;69889;55.040;73.076;2023-11-21T01:39:01;71.50;53.75;33.00
80555;PMS5003;69889;55.040;73.076;2023-11-21T01:41:28;67.50;51.50;31.25
80555;PMS5003;69889;55.040;73.076;2023-11-21T01:43:55;64.00;49.25;30.75
80555;PMS5003;69889;55.040;73.076;2023-11-21T01:46:22;63.25;48.50;30.50
80555;PMS5003;69889;55.040;73.076;2023-11-21T01:48:50;64.50;51.25;31.50
80555;PMS5003;69889;55.040;73.076;2023-11-21T01:51:16;66.25;51.50;31.25
80555;PMS5003;69889;55.040;73.076;2023-11-21T01:53:44;72.00;55.75;33.75
80555;PMS5003;69889;55.040;73.076;2023-11-21T01:56:12;70.50;54.25;33.00
80555;PMS5003;69889;55.040;73.076;2023-11-21T01:58:39;67.00;50.75;31.25
80555;PMS5003;69889;55.040;73.076;2023-11-21T02:01:05;69.50;53.75;33.00
80555;PMS5003;69889;55.040;73.076;2023-11-21T02:03:32;69.50;54.50;33.00
80555;PMS5003;69889;55.040;73.076;2023-11-21T02:05:58;68.50;51.75;31.75
80555;PMS5003;69889;55.040;73.076;2023-11-21T02:08:25;68.00;51.50;32.75
80555;PMS5003;69889;55.040;73.076;2023-11-21T02:10:53;69.25;54.25;33.50
80555;PMS5003;69889;55.040;73.076;2023-11-21T02:13:19;74.50;58.25;34.50
80555;PMS5003;69889;55.040;73.076;2023-11-21T02:15:45;74.75;61.25;35.50
80555;PMS5003;69889;55.040;73.076;2023-11-21T02:18:13;68.00;54.25;33.75
80555;PMS5003;69889;55.040;73.076;2023-11-21T02:20:41;69.75;53.50;33.00
80555;PMS5003;69889;55.040;73.076;2023-11-21T02:23:08;74.25;59.00;34.00
80555;PMS5003;69889;55.040;73.076;2023-11-21T02:25:35;73.00;55.00;33.75
80555;PMS5003;69889;55.040;73.076;2023-11-21T02:28:03;72.00;55.75;33.75
80555;PMS5003;69889;55.040;73.076;2023-11-21T02:30:30;70.75;54.50;31.50
80555;PMS5003;69889;55.040;73.076;2023-11-21T02:33:00;68.25;51.75;31.50
80555;PMS5003;69889;55.040;73.076;2023-11-21T02:35:26;67.50;51.50;30.25
80555;PMS5003;69889;55.040;73.076;2023-11-21T02:37:53;65.25;51.00;31.25
80555;PMS5003;69889;55.040;73.076;2023-11-21T02:40:20;70.00;52.50;32.50
80555;PMS5003;69889;55.040;73.076;2023-11-21T02:42:47;72.25;56.25;33.25
80555;PMS5003;69889;55.040;73.076;2023-11-21T02:45:14;69.00;52.50;30.50
80555;PMS5003;69889;55.040;73.076;2023-11-21T02:47:43;69.75;52.25;32.00
80555;PMS5003;69889;55.040;73.076;2023-11-21T02:50:10;61.75;48.75;28.25
80555;PMS5003;69889;55.040;73.076;2023-11-21T02:52:36;61.00;47.50;27.50
80555;PMS5003;69889;55.040;73.076;2023-11-21T02:55:03;61.50;48.00;28.50
80555;PMS5003;69889;55.040;73.076;2023-11-21T02:57:31;66.75;50.50;30.25
80555;PMS5003;69889;55.040;73.076;2023-11-21T02:59:57;60.00;47.00;29.25
80555;PMS5003;69889;55.040;73.076;2023-11-21T03:02:25;60.25;48.00;29.00
80555;PMS5003;69889;55.040;73.076;2023-11-21T03:04:51;59.50;46.50;30.00
80555;PMS5003;69889;55.040;73.076;2023-11-21T03:07:19;60.50;46.75;29.25
80555;PMS5003;69889;55.040;73.076;2023-11-21T03:09:45;65.25;49.50;30.00
80555;PMS5003;69889;55.040;73.076;2023-11-21T03:12:12;58.50;46.00;28.75
80555;PMS5003;69889;55.040;73.076;2023-11-21T03:14:39;60.00;49.25;31.00
80555;PMS5003;69889;55.040;73.076;2023-11-21T03:17:05;65.00;50.25;31.50
80555;PMS5003;69889;55.040;73.076;2023-11-21T03:19:33;64.00;49.50;30.50
80555;PMS5003;69889;55.040;73.076;2023-11-21T03:21:59;61.50;48.25;30.50
80555;PMS5003;69889;55.040;73.076;2023-11-21T03:24:26;61.00;47.50;30.25
80555;PMS5003;69889;55.040;73.076;2023-11-21T03:26:52;62.50;48.00;29.50
80555;PMS5003;69889;55.040;73.076;2023-11-21T03:29:19;60.50;48.00;31.50
80555;PMS5003;69889;55.040;73.076;2023-11-21T03:31:45;67.00;51.75;33.25
80555;PMS5003;69889;55.040;73.076;2023-11-21T03:34:15;67.25;52.25;32.50
80555;PMS5003;69889;55.040;73.076;2023-11-21T03:36:43;68.50;53.50;33.00
80555;PMS5003;69889;55.040;73.076;2023-11-21T03:39:09;59.00;45.50;29.00
80555;PMS5003;69889;55.040;73.076;2023-11-21T03:41:35;62.50;49.50;31.00
80555;PMS5003;69889;55.040;73.076;2023-11-21T03:44:02;64.75;50.00;32.00
80555;PMS5003;69889;55.040;73.076;2023-11-21T03:46:28;67.00;51.00;31.50
80555;PMS5003;69889;55.040;73.076;2023-11-21T03:48:55;58.00;45.50;29.00
80555;PMS5003;69889;55.040;73.076;2023-11-21T03:51:21;61.50;48.00;29.50
80555;PMS5003;69889;55.040;73.076;2023-11-21T03:53:48;55.75;43.75;27.25
80555;PMS5003;69889;55.040;73.076;2023-11-21T03:56:14;54.75;44.00;27.00
80555;PMS5003;69889;55.040;73.076;2023-11-21T03:58:40;53.75;43.50;27.75
80555;PMS5003;69889;55.040;73.076;2023-11-21T04:01:07;56.00;44.25;26.50
80555;PMS5003;69889;55.040;73.076;2023-11-21T04:03:33;64.00;50.25;31.50
80555;PMS5003;69889;55.040;73.076;2023-11-21T04:06:00;64.00;49.25;30.25
80555;PMS5003;69889;55.040;73.076;2023-11-21T04:08:27;60.50;47.75;29.75
80555;PMS5003;69889;55.040;73.076;2023-11-21T04:10:53;54.25;44.00;28.50
80555;PMS5003;69889;55.040;73.076;2023-11-21T04:13:19;66.50;51.75;32.50
80555;PMS5003;69889;55.040;73.076;2023-11-21T04:15:46;66.00;50.75;32.00
80555;PMS5003;69889;55.040;73.076;2023-11-21T04:18:12;59.25;46.50;30.00
80555;PMS5003;69889;55.040;73.076;2023-11-21T04:20:38;67.50;52.00;32.75
80555;PMS5003;69889;55.040;73.076;2023-11-21T04:23:05;67.25;52.00;32.25
80555;PMS5003;69889;55.040;73.076;2023-11-21T04:25:31;70.75;55.25;34.00
80555;PMS5003;69889;55.040;73.076;2023-11-21T04:27:58;69.50;53.50;33.75
80555;PMS5003;69889;55.040;73.076;2023-11-21T04:30:24;71.25;55.25;34.50
80555;PMS5003;69889;55.040;73.076;2023-11-21T04:32:50;65.00;50.25;31.50
80555;PMS5003;69889;55.040;73.076;2023-11-21T04:35:18;63.25;49.25;30.00
80555;PMS5003;69889;55.040;73.076;2023-11-21T04:37:44;66.00;51.00;31.00
80555;PMS5003;69889;55.040;73.076;2023-11-21T04:40:11;63.50;49.25;31.00
80555;PMS5003;69889;55.040;73.076;2023-11-21T04:42:37;61.25;48.00;30.00
80555;PMS5003;69889;55.040;73.076;2023-11-21T04:45:04;64.00;50.00;31.25
80555;PMS5003;69889;55.040;73.076;2023-11-21T04:47:35;65.50;50.75;31.25
80555;PMS5003;69889;55.040;73.076;2023-11-21T04:50:02;59.50;47.25;30.00
80555;PMS5003;69889;55.040;73.076;2023-11-21T04:52:29;62.50;48.75;30.25
80555;PMS5003;69889;55.040;73.076;2023-11-21T04:54:55;61.50;49.25;31.50
80555;PMS5003;69889;55.040;73.076;2023-11-21T04:57:24;66.00;51.00;31.25
80555;PMS5003;69889;55.040;73.076;2023-11-21T04:59:50;66.50;51.50;32.00
80555;PMS5003;69889;55.040;73.076;2023-11-21T05:02:17;68.00;52.00;33.00
80555;PMS5003;69889;55.040;73.076;2023-11-21T05:05:11;68.50;51.25;31.25
80555;PMS5003;69889;55.040;73.076;2023-11-21T05:07:52;67.50;52.00;32.50
80555;PMS5003;69889;55.040;73.076;2023-11-21T05:10:32;65.25;50.25;31.50
80555;PMS5003;69889;55.040;73.076;2023-11-21T05:12:59;69.50;53.00;33.75
80555;PMS5003;69889;55.040;73.076;2023-11-21T05:15:33;63.50;50.25;32.75
80555;PMS5003;69889;55.040;73.076;2023-11-21T05:18:00;63.25;50.50;32.00
80555;PMS5003;69889;55.040;73.076;2023-11-21T05:20:27;66.00;51.00;33.75
80555;PMS5003;69889;55.040;73.076;2023-11-21T05:22:54;60.25;48.75;30.25
80555;PMS5003;69889;55.040;73.076;2023-11-21T05:25:20;57.25;45.75;29.50
80555;PMS5003;69889;55.040;73.076;2023-11-21T05:27:47;57.25;44.75;28.50
80555;PMS5003;69889;55.040;73.076;2023-11-21T05:30:13;61.50;45.50;29.00
80555;PMS5003;69889;55.040;73.076;2023-11-21T05:32:40;53.75;43.00;27.75
80555;PMS5003;69889;55.040;73.076;2023-11-21T05:35:08;57.75;45.00;28.50
80555;PMS5003;69889;55.040;73.076;2023-11-21T05:37:38;58.25;45.50;28.50
80555;PMS5003;69889;55.040;73.076;2023-11-21T05:40:07;54.50;42.50;27.00
80555;PMS5003;69889;55.040;73.076;2023-11-21T05:42:34;55.25;43.50;27.00
80555;PMS5003;69889;55.040;73.076;2023-11-21T05:45:01;58.75;44.50;28.00
80555;PMS5003;69889;55.040;73.076;2023-11-21T05:47:39;52.50;42.75;27.75
80555;PMS5003;69889;55.040;73.076;2023-11-21T05:50:07;56.00;43.50;27.25
80555;PMS5003;69889;55.040;73.076;2023-11-21T05:52:36;56.00;44.00;28.00
80555;PMS5003;69889;55.040;73.076;2023-11-21T05:55:03;57.75;45.00;29.75
80555;PMS5003;69889;55.040;73.076;2023-11-21T05:57:33;58.25;45.25;28.50
80555;PMS5003;69889;55.040;73.076;2023-11-21T06:00:08;57.00;44.50;29.50
80555;PMS5003;69889;55.040;73.076;2023-11-21T06:02:54;57.50;45.75;29.25
80555;PMS5003;69889;55.040;73.076;2023-11-21T06:05:23;60.75;47.50;29.25
80555;PMS5003;69889;55.040;73.076;2023-11-21T06:07:51;57.75;46.00;28.75
80555;PMS5003;69889;55.040;73.076;2023-11-21T06:10:19;61.50;47.75;30.00
80555;PMS5003;69889;55.040;73.076;2023-11-21T06:12:46;59.00;47.00;30.75
80555;PMS5003;69889;55.040;73.076;2023-11-21T06:15:12;68.75;51.75;32.75
80555;PMS5003;69889;55.040;73.076;2023-11-21T06:17:45;65.50;52.25;33.00
80555;PMS5003;69889;55.040;73.076;2023-11-21T06:20:15;66.75;52.25;34.50
80555;PMS5003;69889;55.040;73.076;2023-11-21T06:22:45;67.00;53.00;34.25
80555;PMS5003;69889;55.040;73.076;2023-11-21T06:25:12;65.75;52.00;32.75
80555;PMS5003;69889;55.040;73.076;2023-11-21T06:27:42;65.75;51.00;33.00
80555;PMS5003;69889;55.040;73.076;2023-11-21T06:30:10;64.00;49.50;32.25
80555;PMS5003;69889;55.040;73.076;2023-11-21T06:32:38;63.50;49.75;31.25
80555;PMS5003;69889;55.040;73.076;2023-11-21T06:35:05;58.00;47.25;31.00
80555;PMS5003;69889;55.040;73.076;2023-11-21T06:37:32;60.25;47.00;30.75
80555;PMS5003;69889;55.040;73.076;2023-11-21T06:39:59;57.50;46.75;30.50
80555;PMS5003;69889;55.040;73.076;2023-11-21T06:42:26;54.50;44.00;28.50
80555;PMS5003;69889;55.040;73.076;2023-11-21T06:44:53;56.50;44.25;28.75
80555;PMS5003;69889;55.040;73.076;2023-11-21T06:47:23;55.50;44.50;28.00
80555;PMS5003;69889;55.040;73.076;2023-11-21T06:49:53;55.50;44.25;28.00
80555;PMS5003;69889;55.040;73.076;2023-11-21T06:52:20;56.50;44.75;28.50
80555;PMS5003;69889;55.040;73.076;2023-11-21T06:54:46;56.25;45.00;29.00
80555;PMS5003;69889;55.040;73.076;2023-11-21T06:57:13;54.00;43.00;27.25
80555;PMS5003;69889;55.040;73.076;2023-11-21T06:59:40;49.00;40.00;27.00
80555;PMS5003;69889;55.040;73.076;2023-11-21T07:02:06;49.00;39.75;25.00
80555;PMS5003;69889;55.040;73.076;2023-11-21T07:04:33;54.00;42.00;27.00
80555;PMS5003;69889;55.040;73.076;2023-11-21T07:06:59;49.00;40.00;26.00
80555;PMS5003;69889;55.040;73.076;2023-11-21T07:09:26;47.50;38.75;25.50
80555;PMS5003;69889;55.040;73.076;2023-11-21T07:11:52;46.50;37.50;25.25
80555;PMS5003;69889;55.040;73.076;2023-11-21T07:14:19;49.25;39.75;25.50
80555;PMS5003;69889;55.040;73.076;2023-11-21T07:16:46;50.00;39.00;25.00
80555;PMS5003;69889;55.040;73.076;2023-11-21T07:19:12;46.00;36.50;23.00
80555;PMS5003;69889;55.040;73.076;2023-11-21T07:21:39;45.50;36.50;23.00
80555;PMS5003;69889;55.040;73.076;2023-11-21T07:24:05;45.75;36.75;23.50
80555;PMS5003;69889;55.040;73.076;2023-11-21T07:26:33;44.00;36.00;24.00
80555;PMS5003;69889;55.040;73.076;2023-11-21T07:29:00;44.00;36.00;24.75
80555;PMS5003;69889;55.040;73.076;2023-11-21T07:31:26;47.00;38.00;25.50
80555;PMS5003;69889;55.040;73.076;2023-11-21T07:33:53;46.00;37.50;25.25
80555;PMS5003;69889;55.040;73.076;2023-11-21T07:36:19;53.50;42.50;27.25
80555;PMS5003;69889;55.040;73.076;2023-11-21T07:38:48;55.25;43.00;28.50
80555;PMS5003;69889;55.040;73.076;2023-11-21T07:41:15;49.75;40.75;27.00
80555;PMS5003;69889;55.040;73.076;2023-11-21T07:43:42;52.50;41.50;26.50
80555;PMS5003;69889;55.040;73.076;2023-11-21T07:46:08;49.50;39.25;26.50
80555;PMS5003;69889;55.040;73.076;2023-11-21T07:48:34;47.25;38.50;24.75
80555;PMS5003;69889;55.040;73.076;2023-11-21T07:51:02;43.00;35.00;23.00
80555;PMS5003;69889;55.040;73.076;2023-11-21T07:53:29;42.25;34.25;22.25
80555;PMS5003;69889;55.040;73.076;2023-11-21T07:55:56;45.25;35.25;24.00
80555;PMS5003;69889;55.040;73.076;2023-11-21T07:58:23;43.50;34.75;22.25
80555;PMS5003;69889;55.040;73.076;2023-11-21T08:00:50;41.50;33.00;22.00
80555;PMS5003;69889;55.040;73.076;2023-11-21T08:03:16;40.25;33.50;22.00
80555;PMS5003;69889;55.040;73.076;2023-11-21T08:05:42;35.50;29.00;18.75
80555;PMS5003;69889;55.040;73.076;2023-11-21T08:08:09;42.00;33.25;21.75
80555;PMS5003;69889;55.040;73.076;2023-11-21T08:10:35;41.75;34.00;22.25
80555;PMS5003;69889;55.040;73.076;2023-11-21T08:13:02;40.25;32.75;20.75
80555;PMS5003;69889;55.040;73.076;2023-11-21T08:15:29;43.00;36.00;22.00
80555;PMS5003;69889;55.040;73.076;2023-11-21T08:17:58;38.25;32.50;21.75
80555;PMS5003;69889;55.040;73.076;2023-11-21T08:20:27;42.50;34.00;21.75
80555;PMS5003;69889;55.040;73.076;2023-11-21T08:22:54;42.00;34.00;22.00
80555;PMS5003;69889;55.040;73.076;2023-11-21T08:25:22;41.75;34.00;23.00
80555;PMS5003;69889;55.040;73.076;2023-11-21T08:27:49;43.25;35.00;24.00
80555;PMS5003;69889;55.040;73.076;2023-11-21T08:30:15;43.00;35.00;23.00
80555;PMS5003;69889;55.040;73.076;2023-11-21T08:32:42;43.50;35.50;24.00
80555;PMS5003;69889;55.040;73.076;2023-11-21T08:35:10;37.75;32.00;22.00
80555;PMS5003;69889;55.040;73.076;2023-11-21T08:37:38;40.00;32.75;22.25
80555;PMS5003;69889;55.040;73.076;2023-11-21T08:40:05;36.75;30.50;19.50
80555;PMS5003;69889;55.040;73.076;2023-11-21T08:42:35;42.00;34.00;21.75
80555;PMS5003;69889;55.040;73.076;2023-11-21T08:45:02;39.75;33.00;22.00
80555;PMS5003;69889;55.040;73.076;2023-11-21T08:47:28;40.75;34.00;22.50
80555;PMS5003;69889;55.040;73.076;2023-11-21T08:49:55;40.00;32.00;21.00
80555;PMS5003;69889;55.040;73.076;2023-11-21T08:52:21;39.00;32.00;21.75
80555;PMS5003;69889;55.040;73.076;2023-11-21T08:54:49;42.00;34.25;22.00
80555;PMS5003;69889;55.040;73.076;2023-11-21T08:57:22;41.25;32.75;22.00
80555;PMS5003;69889;55.040;73.076;2023-11-21T08:59:49;39.75;32.75;22.50
80555;PMS5003;69889;55.040;73.076;2023-11-21T09:02:21;41.75;33.25;21.75
80555;PMS5003;69889;55.040;73.076;2023-11-21T09:04:49;40.75;32.75;21.75
80555;PMS5003;69889;55.040;73.076;2023-11-21T09:07:18;43.00;34.75;24.00
80555;PMS5003;69889;55.040;73.076;2023-11-21T09:09:48;34.75;28.50;19.50
80555;PMS5003;69889;55.040;73.076;2023-11-21T09:12:16;40.50;32.75;21.50
80555;PMS5003;69889;55.040;73.076;2023-11-21T09:14:43;40.25;33.50;23.00
80555;PMS5003;69889;55.040;73.076;2023-11-21T09:17:10;43.50;35.00;22.00
80555;PMS5003;69889;55.040;73.076;2023-11-21T09:19:40;44.75;35.75;22.75
80555;PMS5003;69889;55.040;73.076;2023-11-21T09:22:06;42.50;34.50;23.00
80555;PMS5003;69889;55.040;73.076;2023-11-21T09:24:33;45.00;35.75;23.00
80555;PMS5003;69889;55.040;73.076;2023-11-21T09:27:00;49.75;39.00;24.00
80555;PMS5003;69889;55.040;73.076;2023-11-21T09:29:27;42.75;35.00;22.25
80555;PMS5003;69889;55.040;73.076;2023-11-21T09:31:53;42.50;34.00;21.00
80555;PMS5003;69889;55.040;73.076;2023-11-21T09:34:21;41.00;34.75;22.00
80555;PMS5003;69889;55.040;73.076;2023-11-21T09:36:47;41.75;33.25;22.50
80555;PMS5003;69889;55.040;73.076;2023-11-21T09:39:14;43.25;35.50;23.50
80555;PMS5003;69889;55.040;73.076;2023-11-21T09:41:43;40.75;35.00;23.00
80555;PMS5003;69889;55.040;73.076;2023-11-21T09:44:11;45.00;36.00;22.50
80555;PMS5003;69889;55.040;73.076;2023-11-21T09:46:42;40.25;34.00;22.00
80555;PMS5003;69889;55.040;73.076;2023-11-21T09:49:09;39.25;32.75;22.25
80555;PMS5003;69889;55.040;73.076;2023-11-21T09:51:42;43.00;34.00;23.00
80555;PMS5003;69889;55.040;73.076;2023-11-21T09:54:09;40.25;33.75;22.25
80555;PMS5003;69889;55.040;73.076;2023-11-21T09:56:37;38.75;32.25;21.75
80555;PMS5003;69889;55.040;73.076;2023-11-21T09:59:05;42.75;33.50;22.00
80555;PMS5003;69889;55.040;73.076;2023-11-21T10:01:35;41.75;34.75;23.00
80555;PMS5003;69889;55.040;73.076;2023-11-21T10:04:03;43.00;34.75;22.75
80555;PMS5003;69889;55.040;73.076;2023-11-21T10:06:31;43.00;36.00;24.25
80555;PMS5003;69889;55.040;73.076;2023-11-21T10:08:59;43.00;34.75;22.75
80555;PMS5003;69889;55.040;73.076;2023-11-21T10:11:25;45.00;36.25;24.00
80555;PMS5003;69889;55.040;73.076;2023-11-21T10:13:54;42.00;35.25;23.25
80555;PMS5003;69889;55.040;73.076;2023-11-21T10:16:20;46.75;38.00;25.00
80555;PMS5003;69889;55.040;73.076;2023-11-21T10:18:49;46.25;37.25;24.75
80555;PMS5003;69889;55.040;73.076;2023-11-21T10:21:18;47.00;38.50;24.00
80555;PMS5003;69889;55.040;73.076;2023-11-21T10:23:45;43.00;35.00;24.00
80555;PMS5003;69889;55.040;73.076;2023-11-21T10:26:12;45.75;35.50;23.00
80555;PMS5003;69889;55.040;73.076;2023-11-21T10:28:57;43.00;35.00;23.00
80555;PMS5003;69889;55.040;73.076;2023-11-21T10:31:27;42.00;34.00;23.00
80555;PMS5003;69889;55.040;73.076;2023-11-21T10:33:54;43.50;35.50;22.50
80555;PMS5003;69889;55.040;73.076;2023-11-21T10:36:27;42.25;33.50;22.75
80555;PMS5003;69889;55.040;73.076;2023-11-21T10:38:53;42.75;34.25;22.75
80555;PMS5003;69889;55.040;73.076;2023-11-21T10:41:20;41.00;32.50;22.00
80555;PMS5003;69889;55.040;73.076;2023-11-21T10:43:47;41.00;33.00;22.00
80555;PMS5003;69889;55.040;73.076;2023-11-21T10:46:14;43.00;35.00;24.00
80555;PMS5003;69889;55.040;73.076;2023-11-21T10:48:43;44.25;34.75;22.25
80555;PMS5003;69889;55.040;73.076;2023-11-21T10:51:10;43.00;34.25;21.25
80555;PMS5003;69889;55.040;73.076;2023-11-21T10:53:40;37.25;31.25;21.00
80555;PMS5003;69889;55.040;73.076;2023-11-21T10:56:09;39.00;32.00;21.25
80555;PMS5003;69889;55.040;73.076;2023-11-21T10:58:43;37.25;30.00;19.75
80555;PMS5003;69889;55.040;73.076;2023-11-21T11:01:10;40.00;34.00;22.25
80555;PMS5003;69889;55.040;73.076;2023-11-21T11:03:41;36.00;30.50;20.25
80555;PMS5003;69889;55.040;73.076;2023-11-21T11:06:07;39.75;33.50;21.50
80555;PMS5003;69889;55.040;73.076;2023-11-21T11:08:37;39.75;34.00;21.00
80555;PMS5003;69889;55.040;73.076;2023-11-21T11:11:04;39.50;32.50;21.25
80555;PMS5003;69889;55.040;73.076;2023-11-21T11:13:31;37.50;31.75;21.75
80555;PMS5003;69889;55.040;73.076;2023-11-21T11:15:58;39.25;32.00;20.75
80555;PMS5003;69889;55.040;73.076;2023-11-21T11:18:28;38.25;32.00;20.75
80555;PMS5003;69889;55.040;73.076;2023-11-21T11:21:07;38.50;31.75;20.75
80555;PMS5003;69889;55.040;73.076;2023-11-21T11:26:31;36.75;30.00;20.00
80555;PMS5003;69889;55.040;73.076;2023-11-21T11:31:29;34.25;28.25;18.75
80555;PMS5003;69889;55.040;73.076;2023-11-21T11:36:48;35.00;28.25;19.00
80555;PMS5003;69889;55.040;73.076;2023-11-21T11:39:37;33.00;27.25;17.75
80555;PMS5003;69889;55.040;73.076;2023-11-21T11:42:02;35.00;28.00;18.25
80555;PMS5003;69889;55.040;73.076;2023-11-21T11:47:27;31.00;26.00;17.00
80555;PMS5003;69889;55.040;73.076;2023-11-21T11:52:51;27.25;23.25;16.00
80555;PMS5003;69889;55.040;73.076;2023-11-21T11:55:19;30.00;26.00;18.00
80555;PMS5003;69889;55.040;73.076;2023-11-21T11:57:47;27.50;24.00;16.00
80555;PMS5003;69889;55.040;73.076;2023-11-21T12:00:15;28.75;24.00;17.00
80555;PMS5003;69889;55.040;73.076;2023-11-21T12:02:44;25.50;23.00;15.25
80555;PMS5003;69889;55.040;73.076;2023-11-21T12:05:11;29.75;24.00;16.00
80555;PMS5003;69889;55.040;73.076;2023-11-21T12:08:00;29.00;25.00;17.00
80555;PMS5003;69889;55.040;73.076;2023-11-21T12:10:27;28.75;23.75;16.50
80555;PMS5003;69889;55.040;73.076;2023-11-21T12:13:05;29.50;25.75;17.00
80555;PMS5003;69889;55.040;73.076;2023-11-21T12:15:33;26.75;23.25;15.00
80555;PMS5003;69889;55.040;73.076;2023-11-21T12:18:01;25.00;22.25;16.50
80555;PMS5003;69889;55.040;73.076;2023-11-21T12:20:28;28.25;25.00;18.00
80555;PMS5003;69889;55.040;73.076;2023-11-21T12:23:01;29.50;25.75;16.50
80555;PMS5003;69889;55.040;73.076;2023-11-21T12:25:29;32.75;27.00;17.75
80555;PMS5003;69889;55.040;73.076;2023-11-21T12:27:57;32.50;27.25;18.00
80555;PMS5003;69889;55.040;73.076;2023-11-21T12:30:25;32.00;26.00;17.25
80555;PMS5003;69889;55.040;73.076;2023-11-21T12:32:54;30.50;25.50;17.00
80555;PMS5003;69889;55.040;73.076;2023-11-21T12:35:22;30.00;25.00;16.75
80555;PMS5003;69889;55.040;73.076;2023-11-21T12:37:50;29.00;25.00;16.25
80555;PMS5003;69889;55.040;73.076;2023-11-21T12:40:18;30.50;25.75;16.75
80555;PMS5003;69889;55.040;73.076;2023-11-21T12:42:45;26.25;23.00;15.50
80555;PMS5003;69889;55.040;73.076;2023-11-21T12:45:19;28.25;24.75;17.00
80555;PMS5003;69889;55.040;73.076;2023-11-21T12:47:47;27.50;24.00;16.50
80555;PMS5003;69889;55.040;73.076;2023-11-21T12:50:15;29.00;26.00;18.00
80555;PMS5003;69889;55.040;73.076;2023-11-21T12:52:42;27.75;23.50;16.50
80555;PMS5003;69889;55.040;73.076;2023-11-21T12:55:16;31.00;24.00;17.00
80555;PMS5003;69889;55.040;73.076;2023-11-21T12:57:47;31.75;26.75;17.75
80555;PMS5003;69889;55.040;73.076;2023-11-21T13:00:32;34.00;28.00;18.00
80555;PMS5003;69889;55.040;73.076;2023-11-21T13:02:59;30.00;25.00;16.00
80555;PMS5003;69889;55.040;73.076;2023-11-21T13:05:26;30.50;24.25;16.00
80555;PMS5003;69889;55.040;73.076;2023-11-21T13:07:54;32.00;26.75;16.00
80555;PMS5003;69889;55.040;73.076;2023-11-21T13:10:35;25.75;24.00;15.75
80555;PMS5003;69889;55.040;73.076;2023-11-21T13:13:04;26.00;22.75;14.25
80555;PMS5003;69889;55.040;73.076;2023-11-21T13:15:31;28.00;24.00;16.00
80555;PMS5003;69889;55.040;73.076;2023-11-21T13:17:59;28.25;22.50;15.00
80555;PMS5003;69889;55.040;73.076;2023-11-21T13:20:25;30.75;26.00;17.00
80555;PMS5003;69889;55.040;73.076;2023-11-21T13:22:58;27.75;24.50;17.00
80555;PMS5003;69889;55.040;73.076;2023-11-21T13:25:25;31.00;26.00;17.00
80555;PMS5003;69889;55.040;73.076;2023-11-21T13:27:56;34.00;28.00;19.00
80555;PMS5003;69889;55.040;73.076;2023-11-21T13:30:25;27.00;23.00;15.25
80555;PMS5003;69889;55.040;73.076;2023-11-21T13:33:00;29.50;24.50;16.25
80555;PMS5003;69889;55.040;73.076;2023-11-21T13:35:32;29.00;25.00;17.00
80555;PMS5003;69889;55.040;73.076;2023-11-21T13:38:19;30.00;25.00;16.00
80555;PMS5003;69889;55.040;73.076;2023-11-21T13:40:50;27.00;23.00;16.00
80555;PMS5003;69889;55.040;73.076;2023-11-21T13:43:29;31.00;25.00;16.25
80555;PMS5003;69889;55.040;73.076;2023-11-21T13:45:57;32.00;27.25;18.00
80555;PMS5003;69889;55.040;73.076;2023-11-21T13:48:32;28.00;24.25;17.00
80555;PMS5003;69889;55.040;73.076;2023-11-21T13:51:13;25.75;23.00;15.50
80555;PMS5003;69889;55.040;73.076;2023-11-21T13:53:44;30.50;25.25;16.75